sensor_id;sensor_type;location;lat;lon;timestamp;P1;durP1;ratioP1;P2;durP2;ratioP2
57327;SDS011;43162;51.040;18.244;2023-01-28T00:02:23;78.90;;;28.80;;
57327;SDS011;43162;51.040;18.244;2023-01-28T00:04:49;88.20;;;30.90;;
57327;SDS011;43162;51.040;18.244;2023-01-28T00:07:14;86.40;;;33.60;;
57327;SDS011;43162;51.040;18.244;2023-01-28T00:09:40;91.00;;;34.30;;
57327;SDS011;43162;51.040;18.244;2023-01-28T00:12:05;85.70;;;30.30;;
57327;SDS011;43162;51.040;18.244;2023-01-28T00:14:31;83.70;;;30.10;;
57327;SDS011;43162;51.040;18.244;2023-01-28T00:16:56;87.40;;;31.20;;
57327;SDS011;43162;51.040;18.244;2023-01-28T00:19:22;84.70;;;30.70;;
57327;SDS011;43162;51.040;18.244;2023-01-28T00:21:48;78.00;;;27.70;;
57327;SDS011;43162;51.040;18.244;2023-01-28T00:24:14;88.40;;;30.40;;
57327;SDS011;43162;51.040;18.244;2023-01-28T00:26:39;93.00;;;34.20;;
57327;SDS011;43162;51.040;18.244;2023-01-28T00:29:05;86.20;;;30.70;;
57327;SDS011;43162;51.040;18.244;2023-01-28T00:31:30;84.20;;;27.30;;
57327;SDS011;43162;51.040;18.244;2023-01-28T00:33:56;83.90;;;27.90;;
57327;SDS011;43162;51.040;18.244;2023-01-28T00:36:23;84.70;;;30.10;;
57327;SDS011;43162;51.040;18.244;2023-01-28T00:38:56;89.30;;;33.20;;
57327;SDS011;43162;51.040;18.244;2023-01-28T00:41:22;85.00;;;32.50;;
57327;SDS011;43162;51.040;18.244;2023-01-28T00:43:48;86.70;;;30.40;;
57327;SDS011;43162;51.040;18.244;2023-01-28T00:46:13;76.60;;;27.70;;
57327;SDS011;43162;51.040;18.244;2023-01-28T00:48:39;88.70;;;30.10;;
57327;SDS011;43162;51.040;18.244;2023-01-28T00:51:05;89.70;;;35.30;;
57327;SDS011;43162;51.040;18.244;2023-01-28T00:53:31;82.00;;;32.00;;
57327;SDS011;43162;51.040;18.244;2023-01-28T00:55:59;70.40;;;28.40;;
57327;SDS011;43162;51.040;18.244;2023-01-28T00:58:25;87.00;;;31.20;;
57327;SDS011;43162;51.040;18.244;2023-01-28T01:00:50;82.10;;;29.90;;
57327;SDS011;43162;51.040;18.244;2023-01-28T01:03:16;76.40;;;28.80;;
57327;SDS011;43162;51.040;18.244;2023-01-28T01:05:42;86.30;;;31.60;;
57327;SDS011;43162;51.040;18.244;2023-01-28T01:08:07;92.70;;;32.90;;
57327;SDS011;43162;51.040;18.244;2023-01-28T01:10:33;92.40;;;32.50;;
57327;SDS011;43162;51.040;18.244;2023-01-28T01:12:59;81.10;;;29.70;;
57327;SDS011;43162;51.040;18.244;2023-01-28T01:15:24;78.40;;;28.90;;
57327;SDS011;43162;51.040;18.244;2023-01-28T01:17:50;82.20;;;30.90;;
57327;SDS011;43162;51.040;18.244;2023-01-28T01:20:17;87.70;;;29.40;;
57327;SDS011;43162;51.040;18.244;2023-01-28T01:22:44;80.60;;;30.40;;
57327;SDS011;43162;51.040;18.244;2023-01-28T01:25:10;83.90;;;32.70;;
57327;SDS011;43162;51.040;18.244;2023-01-28T01:27:36;68.50;;;26.70;;
57327;SDS011;43162;51.040;18.244;2023-01-28T01:30:02;73.40;;;26.80;;
57327;SDS011;43162;51.040;18.244;2023-01-28T01:32:28;74.60;;;27.80;;
57327;SDS011;43162;51.040;18.244;2023-01-28T01:34:54;74.00;;;28.70;;
57327;SDS011;43162;51.040;18.244;2023-01-28T01:37:19;82.00;;;31.30;;
57327;SDS011;43162;51.040;18.244;2023-01-28T01:39:45;100.50;;;38.90;;
57327;SDS011;43162;51.040;18.244;2023-01-28T01:42:11;88.30;;;32.70;;
57327;SDS011;43162;51.040;18.244;2023-01-28T01:44:57;76.80;;;30.50;;
57327;SDS011;43162;51.040;18.244;2023-01-28T01:47:28;84.40;;;33.80;;
57327;SDS011;43162;51.040;18.244;2023-01-28T01:49:56;74.60;;;29.90;;
57327;SDS011;43162;51.040;18.244;2023-01-28T01:52:27;61.70;;;25.90;;
57327;SDS011;43162;51.040;18.244;2023-01-28T01:54:56;71.40;;;28.40;;
57327;SDS011;43162;51.040;18.244;2023-01-28T01:57:26;67.20;;;25.50;;
57327;SDS011;43162;51.040;18.244;2023-01-28T01:59:53;68.60;;;29.50;;
57327;SDS011;43162;51.040;18.244;2023-01-28T02:02:20;57.00;;;24.30;;
57327;SDS011;43162;51.040;18.244;2023-01-28T02:04:46;73.40;;;27.50;;
57327;SDS011;43162;51.040;18.244;2023-01-28T02:07:12;59.60;;;25.90;;
57327;SDS011;43162;51.040;18.244;2023-01-28T02:09:38;62.40;;;26.20;;
57327;SDS011;43162;51.040;18.244;2023-01-28T02:12:10;65.80;;;25.10;;
57327;SDS011;43162;51.040;18.244;2023-01-28T02:14:41;71.30;;;28.40;;
57327;SDS011;43162;51.040;18.244;2023-01-28T02:17:07;69.60;;;28.40;;
57327;SDS011;43162;51.040;18.244;2023-01-28T02:19:37;60.20;;;27.80;;
57327;SDS011;43162;51.040;18.244;2023-01-28T02:22:05;62.20;;;28.50;;
57327;SDS011;43162;51.040;18.244;2023-01-28T02:29:40;71.10;;;28.60;;
57327;SDS011;43162;51.040;18.244;2023-01-28T02:32:19;54.80;;;24.20;;
57327;SDS011;43162;51.040;18.244;2023-01-28T02:34:58;61.20;;;29.00;;
57327;SDS011;43162;51.040;18.244;2023-01-28T02:37:24;63.20;;;26.60;;
57327;SDS011;43162;51.040;18.244;2023-01-28T02:39:53;55.10;;;23.30;;
57327;SDS011;43162;51.040;18.244;2023-01-28T02:42:37;60.60;;;24.60;;
57327;SDS011;43162;51.040;18.244;2023-01-28T02:48:14;64.10;;;26.30;;
57327;SDS011;43162;51.040;18.244;2023-01-28T02:50:46;63.10;;;26.20;;
57327;SDS011;43162;51.040;18.244;2023-01-28T02:53:23;65.30;;;28.40;;
57327;SDS011;43162;51.040;18.244;2023-01-28T02:58:41;63.40;;;27.90;;
57327;SDS011;43162;51.040;18.244;2023-01-28T03:06:36;69.00;;;28.10;;
57327;SDS011;43162;51.040;18.244;2023-01-28T03:09:05;67.70;;;28.60;;
57327;SDS011;43162;51.040;18.244;2023-01-28T03:14:38;59.20;;;27.90;;
57327;SDS011;43162;51.040;18.244;2023-01-28T03:20:13;66.60;;;26.10;;
57327;SDS011;43162;51.040;18.244;2023-01-28T03:22:59;60.30;;;24.60;;
57327;SDS011;43162;51.040;18.244;2023-01-28T03:25:44;59.90;;;26.00;;
57327;SDS011;43162;51.040;18.244;2023-01-28T03:28:30;56.00;;;24.20;;
57327;SDS011;43162;51.040;18.244;2023-01-28T03:31:15;63.60;;;23.80;;
57327;SDS011;43162;51.040;18.244;2023-01-28T03:34:00;55.00;;;23.40;;
57327;SDS011;43162;51.040;18.244;2023-01-28T03:36:45;57.90;;;25.50;;
57327;SDS011;43162;51.040;18.244;2023-01-28T03:39:19;67.60;;;28.40;;
57327;SDS011;43162;51.040;18.244;2023-01-28T03:41:55;65.10;;;26.10;;
57327;SDS011;43162;51.040;18.244;2023-01-28T03:44:22;59.90;;;25.10;;
57327;SDS011;43162;51.040;18.244;2023-01-28T03:47:06;74.00;;;29.30;;
57327;SDS011;43162;51.040;18.244;2023-01-28T03:49:33;73.80;;;28.20;;
57327;SDS011;43162;51.040;18.244;2023-01-28T03:51:59;61.20;;;26.40;;
57327;SDS011;43162;51.040;18.244;2023-01-28T03:54:24;54.20;;;23.90;;
57327;SDS011;43162;51.040;18.244;2023-01-28T03:56:49;66.40;;;26.70;;
57327;SDS011;43162;51.040;18.244;2023-01-28T03:59:15;65.30;;;26.40;;
57327;SDS011;43162;51.040;18.244;2023-01-28T04:01:40;61.60;;;25.40;;
57327;SDS011;43162;51.040;18.244;2023-01-28T04:04:06;56.30;;;24.40;;
57327;SDS011;43162;51.040;18.244;2023-01-28T04:06:31;66.70;;;28.70;;
57327;SDS011;43162;51.040;18.244;2023-01-28T04:08:57;59.50;;;26.00;;
57327;SDS011;43162;51.040;18.244;2023-01-28T04:11:24;63.80;;;25.20;;
57327;SDS011;43162;51.040;18.244;2023-01-28T04:13:50;64.30;;;25.30;;
57327;SDS011;43162;51.040;18.244;2023-01-28T04:16:17;66.20;;;24.50;;
57327;SDS011;43162;51.040;18.244;2023-01-28T04:18:43;64.00;;;27.40;;
57327;SDS011;43162;51.040;18.244;2023-01-28T04:21:09;55.30;;;22.20;;
57327;SDS011;43162;51.040;18.244;2023-01-28T04:23:34;65.00;;;26.60;;
57327;SDS011;43162;51.040;18.244;2023-01-28T04:26:00;57.60;;;25.20;;
57327;SDS011;43162;51.040;18.244;2023-01-28T04:28:26;59.90;;;25.80;;
57327;SDS011;43162;51.040;18.244;2023-01-28T04:30:52;63.10;;;24.30;;
57327;SDS011;43162;51.040;18.244;2023-01-28T04:33:17;57.00;;;23.80;;
57327;SDS011;43162;51.040;18.244;2023-01-28T04:35:43;59.20;;;23.30;;
57327;SDS011;43162;51.040;18.244;2023-01-28T04:38:08;53.50;;;24.80;;
57327;SDS011;43162;51.040;18.244;2023-01-28T04:40:34;55.30;;;23.80;;
57327;SDS011;43162;51.040;18.244;2023-01-28T04:43:00;60.70;;;24.90;;
57327;SDS011;43162;51.040;18.244;2023-01-28T04:45:25;57.80;;;25.80;;
57327;SDS011;43162;51.040;18.244;2023-01-28T04:47:51;52.30;;;23.50;;
57327;SDS011;43162;51.040;18.244;2023-01-28T04:50:16;54.60;;;23.30;;
57327;SDS011;43162;51.040;18.244;2023-01-28T04:52:42;57.00;;;24.40;;
57327;SDS011;43162;51.040;18.244;2023-01-28T04:55:08;52.80;;;21.70;;
57327;SDS011;43162;51.040;18.244;2023-01-28T04:57:33;52.30;;;22.80;;
57327;SDS011;43162;51.040;18.244;2023-01-28T04:59:59;53.70;;;23.70;;
57327;SDS011;43162;51.040;18.244;2023-01-28T05:02:25;49.70;;;20.50;;
57327;SDS011;43162;51.040;18.244;2023-01-28T05:04:51;55.40;;;21.90;;
57327;SDS011;43162;51.040;18.244;2023-01-28T05:07:16;58.90;;;21.80;;
57327;SDS011;43162;51.040;18.244;2023-01-28T05:09:42;52.10;;;23.20;;
57327;SDS011;43162;51.040;18.244;2023-01-28T05:12:07;46.60;;;18.70;;
57327;SDS011;43162;51.040;18.244;2023-01-28T05:14:33;81.80;;;33.00;;
57327;SDS011;43162;51.040;18.244;2023-01-28T05:16:59;119.40;;;46.80;;
57327;SDS011;43162;51.040;18.244;2023-01-28T05:19:24;116.30;;;44.20;;
57327;SDS011;43162;51.040;18.244;2023-01-28T05:21:50;73.40;;;25.90;;
57327;SDS011;43162;51.040;18.244;2023-01-28T05:24:20;55.50;;;23.80;;
57327;SDS011;43162;51.040;18.244;2023-01-28T05:26:46;60.30;;;25.50;;
57327;SDS011;43162;51.040;18.244;2023-01-28T05:29:12;55.50;;;22.50;;
57327;SDS011;43162;51.040;18.244;2023-01-28T05:31:37;56.20;;;24.10;;
57327;SDS011;43162;51.040;18.244;2023-01-28T05:34:03;50.50;;;21.60;;
57327;SDS011;43162;51.040;18.244;2023-01-28T05:36:29;103.30;;;35.90;;
57327;SDS011;43162;51.040;18.244;2023-01-28T05:38:54;65.20;;;25.80;;
57327;SDS011;43162;51.040;18.244;2023-01-28T05:41:20;58.90;;;25.30;;
57327;SDS011;43162;51.040;18.244;2023-01-28T05:43:45;67.00;;;32.50;;
57327;SDS011;43162;51.040;18.244;2023-01-28T05:46:11;62.20;;;22.80;;
57327;SDS011;43162;51.040;18.244;2023-01-28T05:48:36;59.90;;;23.10;;
57327;SDS011;43162;51.040;18.244;2023-01-28T05:51:02;59.60;;;24.50;;
57327;SDS011;43162;51.040;18.244;2023-01-28T05:53:29;114.50;;;45.40;;
57327;SDS011;43162;51.040;18.244;2023-01-28T05:55:55;72.30;;;27.40;;
57327;SDS011;43162;51.040;18.244;2023-01-28T05:58:20;52.40;;;22.50;;
57327;SDS011;43162;51.040;18.244;2023-01-28T06:00:46;48.90;;;21.10;;
57327;SDS011;43162;51.040;18.244;2023-01-28T06:03:11;50.70;;;21.10;;
57327;SDS011;43162;51.040;18.244;2023-01-28T06:05:37;51.90;;;21.90;;
57327;SDS011;43162;51.040;18.244;2023-01-28T06:08:03;48.70;;;23.00;;
57327;SDS011;43162;51.040;18.244;2023-01-28T06:10:29;56.80;;;24.60;;
57327;SDS011;43162;51.040;18.244;2023-01-28T06:12:55;62.20;;;24.40;;
57327;SDS011;43162;51.040;18.244;2023-01-28T06:15:20;67.70;;;26.30;;
57327;SDS011;43162;51.040;18.244;2023-01-28T06:17:46;51.50;;;22.50;;
57327;SDS011;43162;51.040;18.244;2023-01-28T06:20:11;53.80;;;21.60;;
57327;SDS011;43162;51.040;18.244;2023-01-28T06:22:37;51.30;;;21.80;;
57327;SDS011;43162;51.040;18.244;2023-01-28T06:25:02;53.50;;;24.00;;
57327;SDS011;43162;51.040;18.244;2023-01-28T06:27:28;49.80;;;21.00;;
57327;SDS011;43162;51.040;18.244;2023-01-28T06:29:54;45.30;;;20.70;;
57327;SDS011;43162;51.040;18.244;2023-01-28T06:32:19;50.30;;;22.90;;
57327;SDS011;43162;51.040;18.244;2023-01-28T06:34:45;49.40;;;21.00;;
57327;SDS011;43162;51.040;18.244;2023-01-28T06:37:12;49.80;;;22.10;;
57327;SDS011;43162;51.040;18.244;2023-01-28T06:39:37;51.80;;;21.20;;
57327;SDS011;43162;51.040;18.244;2023-01-28T06:42:03;48.00;;;22.50;;
57327;SDS011;43162;51.040;18.244;2023-01-28T06:44:28;47.90;;;20.10;;
57327;SDS011;43162;51.040;18.244;2023-01-28T06:46:54;48.30;;;20.40;;
57327;SDS011;43162;51.040;18.244;2023-01-28T06:49:20;45.80;;;22.00;;
57327;SDS011;43162;51.040;18.244;2023-01-28T06:51:46;56.90;;;26.70;;
57327;SDS011;43162;51.040;18.244;2023-01-28T06:54:11;55.70;;;24.80;;
57327;SDS011;43162;51.040;18.244;2023-01-28T06:56:37;45.80;;;21.30;;
57327;SDS011;43162;51.040;18.244;2023-01-28T06:59:03;41.40;;;19.70;;
57327;SDS011;43162;51.040;18.244;2023-01-28T07:01:28;40.30;;;17.40;;
57327;SDS011;43162;51.040;18.244;2023-01-28T07:03:53;38.20;;;17.90;;
57327;SDS011;43162;51.040;18.244;2023-01-28T07:06:20;39.00;;;17.80;;
57327;SDS011;43162;51.040;18.244;2023-01-28T07:08:45;48.50;;;25.90;;
57327;SDS011;43162;51.040;18.244;2023-01-28T07:11:11;44.40;;;20.80;;
57327;SDS011;43162;51.040;18.244;2023-01-28T07:13:37;33.40;;;17.90;;
57327;SDS011;43162;51.040;18.244;2023-01-28T07:16:03;59.40;;;24.70;;
57327;SDS011;43162;51.040;18.244;2023-01-28T07:18:29;43.80;;;20.80;;
57327;SDS011;43162;51.040;18.244;2023-01-28T07:20:54;40.30;;;17.70;;
57327;SDS011;43162;51.040;18.244;2023-01-28T07:23:20;37.00;;;18.60;;
57327;SDS011;43162;51.040;18.244;2023-01-28T07:25:46;38.20;;;19.40;;
57327;SDS011;43162;51.040;18.244;2023-01-28T07:28:13;37.90;;;18.50;;
57327;SDS011;43162;51.040;18.244;2023-01-28T07:30:54;32.20;;;16.30;;
57327;SDS011;43162;51.040;18.244;2023-01-28T07:33:20;37.70;;;18.30;;
57327;SDS011;43162;51.040;18.244;2023-01-28T07:35:46;37.80;;;16.00;;
57327;SDS011;43162;51.040;18.244;2023-01-28T07:38:11;38.60;;;16.40;;
57327;SDS011;43162;51.040;18.244;2023-01-28T07:40:37;42.30;;;19.20;;
57327;SDS011;43162;51.040;18.244;2023-01-28T07:43:03;47.10;;;20.10;;
57327;SDS011;43162;51.040;18.244;2023-01-28T07:45:31;23.80;;;11.80;;
57327;SDS011;43162;51.040;18.244;2023-01-28T07:48:00;33.40;;;14.40;;
57327;SDS011;43162;51.040;18.244;2023-01-28T07:50:28;28.30;;;15.20;;
57327;SDS011;43162;51.040;18.244;2023-01-28T07:52:54;43.40;;;19.60;;
57327;SDS011;43162;51.040;18.244;2023-01-28T07:55:20;41.40;;;21.70;;
57327;SDS011;43162;51.040;18.244;2023-01-28T07:57:49;39.60;;;18.00;;
57327;SDS011;43162;51.040;18.244;2023-01-28T08:00:15;37.00;;;15.30;;
57327;SDS011;43162;51.040;18.244;2023-01-28T08:02:42;37.30;;;17.70;;
57327;SDS011;43162;51.040;18.244;2023-01-28T08:05:14;37.80;;;19.90;;
57327;SDS011;43162;51.040;18.244;2023-01-28T08:07:39;45.20;;;22.20;;
57327;SDS011;43162;51.040;18.244;2023-01-28T08:10:05;42.10;;;20.50;;
57327;SDS011;43162;51.040;18.244;2023-01-28T08:12:32;69.50;;;38.40;;
57327;SDS011;43162;51.040;18.244;2023-01-28T08:14:58;65.20;;;30.00;;
57327;SDS011;43162;51.040;18.244;2023-01-28T08:17:24;158.40;;;60.40;;
57327;SDS011;43162;51.040;18.244;2023-01-28T08:19:49;146.90;;;52.20;;
57327;SDS011;43162;51.040;18.244;2023-01-28T08:22:14;152.40;;;62.30;;
57327;SDS011;43162;51.040;18.244;2023-01-28T08:24:40;75.90;;;35.80;;
57327;SDS011;43162;51.040;18.244;2023-01-28T08:27:05;59.60;;;28.70;;
57327;SDS011;43162;51.040;18.244;2023-01-28T08:29:31;66.30;;;30.90;;
57327;SDS011;43162;51.040;18.244;2023-01-28T08:31:57;89.70;;;44.70;;
57327;SDS011;43162;51.040;18.244;2023-01-28T08:34:22;78.30;;;39.90;;
57327;SDS011;43162;51.040;18.244;2023-01-28T08:36:48;105.30;;;48.80;;
57327;SDS011;43162;51.040;18.244;2023-01-28T08:39:14;121.50;;;53.10;;
57327;SDS011;43162;51.040;18.244;2023-01-28T08:41:39;127.90;;;51.20;;
57327;SDS011;43162;51.040;18.244;2023-01-28T08:44:05;64.20;;;23.90;;
57327;SDS011;43162;51.040;18.244;2023-01-28T08:46:30;54.60;;;22.80;;
57327;SDS011;43162;51.040;18.244;2023-01-28T08:48:56;56.60;;;23.60;;
57327;SDS011;43162;51.040;18.244;2023-01-28T08:51:22;67.30;;;22.90;;
57327;SDS011;43162;51.040;18.244;2023-01-28T08:53:48;56.60;;;22.80;;
57327;SDS011;43162;51.040;18.244;2023-01-28T08:56:14;58.50;;;23.20;;
57327;SDS011;43162;51.040;18.244;2023-01-28T08:58:40;75.40;;;27.50;;
57327;SDS011;43162;51.040;18.244;2023-01-28T09:01:06;54.80;;;20.80;;
57327;SDS011;43162;51.040;18.244;2023-01-28T09:03:32;109.80;;;35.10;;
57327;SDS011;43162;51.040;18.244;2023-01-28T09:06:01;70.90;;;22.30;;
57327;SDS011;43162;51.040;18.244;2023-01-28T09:08:27;56.30;;;21.80;;
57327;SDS011;43162;51.040;18.244;2023-01-28T09:10:54;93.00;;;31.40;;
57327;SDS011;43162;51.040;18.244;2023-01-28T09:13:20;66.70;;;21.10;;
57327;SDS011;43162;51.040;18.244;2023-01-28T09:15:45;55.10;;;22.20;;
57327;SDS011;43162;51.040;18.244;2023-01-28T09:18:11;42.00;;;18.70;;
57327;SDS011;43162;51.040;18.244;2023-01-28T09:20:36;63.50;;;20.70;;
57327;SDS011;43162;51.040;18.244;2023-01-28T09:23:02;46.70;;;18.80;;
57327;SDS011;43162;51.040;18.244;2023-01-28T09:25:27;44.40;;;19.10;;
57327;SDS011;43162;51.040;18.244;2023-01-28T09:27:53;84.60;;;29.80;;
57327;SDS011;43162;51.040;18.244;2023-01-28T09:30:19;120.00;;;43.00;;
57327;SDS011;43162;51.040;18.244;2023-01-28T09:32:48;123.20;;;45.40;;
57327;SDS011;43162;51.040;18.244;2023-01-28T09:35:14;55.40;;;20.70;;
57327;SDS011;43162;51.040;18.244;2023-01-28T09:37:40;45.30;;;18.40;;
57327;SDS011;43162;51.040;18.244;2023-01-28T09:40:06;45.00;;;21.80;;
57327;SDS011;43162;51.040;18.244;2023-01-28T09:42:47;56.40;;;25.20;;
57327;SDS011;43162;51.040;18.244;2023-01-28T09:52:47;44.10;;;18.80;;
57327;SDS011;43162;51.040;18.244;2023-01-28T09:57:44;54.80;;;21.80;;
57327;SDS011;43162;51.040;18.244;2023-01-28T10:00:13;46.70;;;20.80;;
57327;SDS011;43162;51.040;18.244;2023-01-28T10:05:26;60.70;;;25.50;;
57327;SDS011;43162;51.040;18.244;2023-01-28T10:10:26;44.60;;;16.00;;
57327;SDS011;43162;51.040;18.244;2023-01-28T10:15:26;43.20;;;20.60;;
57327;SDS011;43162;51.040;18.244;2023-01-28T10:17:56;53.40;;;24.40;;
57327;SDS011;43162;51.040;18.244;2023-01-28T10:20:31;47.60;;;21.90;;
57327;SDS011;43162;51.040;18.244;2023-01-28T10:25:41;60.20;;;27.20;;
57327;SDS011;43162;51.040;18.244;2023-01-28T10:28:13;52.30;;;25.50;;
57327;SDS011;43162;51.040;18.244;2023-01-28T10:30:41;43.50;;;20.20;;
57327;SDS011;43162;51.040;18.244;2023-01-28T10:33:17;46.30;;;21.30;;
57327;SDS011;43162;51.040;18.244;2023-01-28T10:35:43;29.90;;;11.10;;
57327;SDS011;43162;51.040;18.244;2023-01-28T10:38:15;42.00;;;19.70;;
57327;SDS011;43162;51.040;18.244;2023-01-28T10:40:41;40.30;;;19.60;;
57327;SDS011;43162;51.040;18.244;2023-01-28T10:43:07;32.40;;;15.30;;
57327;SDS011;43162;51.040;18.244;2023-01-28T10:45:34;43.30;;;21.30;;
57327;SDS011;43162;51.040;18.244;2023-01-28T10:48:06;60.30;;;24.90;;
57327;SDS011;43162;51.040;18.244;2023-01-28T10:50:32;33.60;;;17.60;;
57327;SDS011;43162;51.040;18.244;2023-01-28T10:53:03;42.90;;;19.90;;
57327;SDS011;43162;51.040;18.244;2023-01-28T10:55:29;30.30;;;15.60;;
57327;SDS011;43162;51.040;18.244;2023-01-28T10:57:56;44.20;;;19.00;;
57327;SDS011;43162;51.040;18.244;2023-01-28T11:00:27;44.60;;;19.30;;
57327;SDS011;43162;51.040;18.244;2023-01-28T11:02:55;36.90;;;19.90;;
57327;SDS011;43162;51.040;18.244;2023-01-28T11:05:24;33.40;;;19.00;;
57327;SDS011;43162;51.040;18.244;2023-01-28T11:10:48;34.60;;;17.40;;
57327;SDS011;43162;51.040;18.244;2023-01-28T11:13:18;43.20;;;21.00;;
57327;SDS011;43162;51.040;18.244;2023-01-28T11:15:56;41.70;;;20.40;;
57327;SDS011;43162;51.040;18.244;2023-01-28T11:18:23;13.40;;;8.20;;
57327;SDS011;43162;51.040;18.244;2023-01-28T11:21:00;30.40;;;16.30;;
57327;SDS011;43162;51.040;18.244;2023-01-28T11:23:33;39.70;;;19.50;;
57327;SDS011;43162;51.040;18.244;2023-01-28T11:26:08;35.30;;;18.90;;
57327;SDS011;43162;51.040;18.244;2023-01-28T11:28:39;51.30;;;21.90;;
57327;SDS011;43162;51.040;18.244;2023-01-28T11:31:05;67.90;;;31.80;;
57327;SDS011;43162;51.040;18.244;2023-01-28T11:36:13;47.70;;;22.70;;
57327;SDS011;43162;51.040;18.244;2023-01-28T11:41:04;44.50;;;21.80;;
57327;SDS011;43162;51.040;18.244;2023-01-28T11:43:30;47.50;;;22.90;;
57327;SDS011;43162;51.040;18.244;2023-01-28T11:45:59;53.00;;;26.20;;
57327;SDS011;43162;51.040;18.244;2023-01-28T11:48:41;63.40;;;29.30;;
57327;SDS011;43162;51.040;18.244;2023-01-28T12:04:24;47.40;;;21.80;;
57327;SDS011;43162;51.040;18.244;2023-01-28T12:07:10;47.40;;;23.50;;
57327;SDS011;43162;51.040;18.244;2023-01-28T12:09:48;56.10;;;26.90;;
57327;SDS011;43162;51.040;18.244;2023-01-28T12:14:53;57.20;;;26.40;;
57327;SDS011;43162;51.040;18.244;2023-01-28T12:36:24;47.50;;;24.30;;
57327;SDS011;43162;51.040;18.244;2023-01-28T12:44:23;68.40;;;34.30;;
57327;SDS011;43162;51.040;18.244;2023-01-28T12:46:52;31.10;;;14.80;;
57327;SDS011;43162;51.040;18.244;2023-01-28T12:49:21;30.20;;;15.30;;
57327;SDS011;43162;51.040;18.244;2023-01-28T12:56:43;38.40;;;18.50;;
57327;SDS011;43162;51.040;18.244;2023-01-28T12:59:15;49.70;;;22.60;;
57327;SDS011;43162;51.040;18.244;2023-01-28T13:07:05;36.10;;;19.20;;
57327;SDS011;43162;51.040;18.244;2023-01-28T13:09:34;46.70;;;21.90;;
57327;SDS011;43162;51.040;18.244;2023-01-28T13:12:00;39.80;;;24.10;;
57327;SDS011;43162;51.040;18.244;2023-01-28T13:14:28;43.50;;;23.60;;
57327;SDS011;43162;51.040;18.244;2023-01-28T13:16:55;33.20;;;18.20;;
57327;SDS011;43162;51.040;18.244;2023-01-28T13:19:22;42.30;;;22.90;;
57327;SDS011;43162;51.040;18.244;2023-01-28T13:21:49;43.00;;;22.20;;
57327;SDS011;43162;51.040;18.244;2023-01-28T13:31:40;28.90;;;16.00;;
57327;SDS011;43162;51.040;18.244;2023-01-28T13:34:06;40.40;;;22.70;;
57327;SDS011;43162;51.040;18.244;2023-01-28T13:36:36;22.80;;;13.30;;
57327;SDS011;43162;51.040;18.244;2023-01-28T13:39:06;34.20;;;18.30;;
57327;SDS011;43162;51.040;18.244;2023-01-28T13:41:52;44.30;;;21.60;;
57327;SDS011;43162;51.040;18.244;2023-01-28T13:46:46;69.50;;;35.40;;
57327;SDS011;43162;51.040;18.244;2023-01-28T13:49:14;76.70;;;38.30;;
57327;SDS011;43162;51.040;18.244;2023-01-28T13:51:44;85.30;;;42.80;;
57327;SDS011;43162;51.040;18.244;2023-01-28T13:54:14;73.20;;;39.30;;
57327;SDS011;43162;51.040;18.244;2023-01-28T13:59:38;70.60;;;36.20;;
57327;SDS011;43162;51.040;18.244;2023-01-28T14:09:30;112.40;;;46.40;;
57327;SDS011;43162;51.040;18.244;2023-01-28T14:17:01;115.30;;;46.80;;
57327;SDS011;43162;51.040;18.244;2023-01-28T14:19:31;101.30;;;42.60;;
57327;SDS011;43162;51.040;18.244;2023-01-28T14:22:18;93.70;;;47.60;;
57327;SDS011;43162;51.040;18.244;2023-01-28T14:24:44;76.90;;;38.90;;
57327;SDS011;43162;51.040;18.244;2023-01-28T14:27:13;66.60;;;34.70;;
57327;SDS011;43162;51.040;18.244;2023-01-28T14:32:20;90.20;;;38.90;;
57327;SDS011;43162;51.040;18.244;2023-01-28T14:34:46;122.70;;;46.50;;
57327;SDS011;43162;51.040;18.244;2023-01-28T14:37:14;117.40;;;48.60;;
57327;SDS011;43162;51.040;18.244;2023-01-28T14:39:51;116.40;;;47.80;;
57327;SDS011;43162;51.040;18.244;2023-01-28T14:42:19;137.30;;;55.10;;
57327;SDS011;43162;51.040;18.244;2023-01-28T14:44:47;98.70;;;43.10;;
57327;SDS011;43162;51.040;18.244;2023-01-28T14:57:50;43.40;;;23.30;;
57327;SDS011;43162;51.040;18.244;2023-01-28T15:02:44;61.60;;;29.90;;
57327;SDS011;43162;51.040;18.244;2023-01-28T15:05:19;76.50;;;39.00;;
57327;SDS011;43162;51.040;18.244;2023-01-28T15:07:46;64.50;;;30.50;;
57327;SDS011;43162;51.040;18.244;2023-01-28T15:10:15;63.00;;;29.00;;
57327;SDS011;43162;51.040;18.244;2023-01-28T15:12:43;66.20;;;33.10;;
57327;SDS011;43162;51.040;18.244;2023-01-28T15:15:30;70.10;;;34.10;;
57327;SDS011;43162;51.040;18.244;2023-01-28T15:17:59;48.00;;;22.30;;
57327;SDS011;43162;51.040;18.244;2023-01-28T15:20:26;65.60;;;30.70;;
57327;SDS011;43162;51.040;18.244;2023-01-28T15:22:52;77.70;;;42.90;;
57327;SDS011;43162;51.040;18.244;2023-01-28T15:25:19;80.80;;;41.00;;
57327;SDS011;43162;51.040;18.244;2023-01-28T15:27:48;96.90;;;43.20;;
57327;SDS011;43162;51.040;18.244;2023-01-28T15:30:21;71.50;;;34.50;;
57327;SDS011;43162;51.040;18.244;2023-01-28T15:32:55;67.40;;;32.00;;
57327;SDS011;43162;51.040;18.244;2023-01-28T15:35:21;63.20;;;32.70;;
57327;SDS011;43162;51.040;18.244;2023-01-28T15:37:48;79.50;;;43.30;;
57327;SDS011;43162;51.040;18.244;2023-01-28T15:40:18;31.90;;;19.60;;
57327;SDS011;43162;51.040;18.244;2023-01-28T15:42:45;67.60;;;31.50;;
57327;SDS011;43162;51.040;18.244;2023-01-28T15:45:15;112.50;;;54.90;;
57327;SDS011;43162;51.040;18.244;2023-01-28T15:47:42;48.10;;;25.80;;
57327;SDS011;43162;51.040;18.244;2023-01-28T15:50:07;61.30;;;31.20;;
57327;SDS011;43162;51.040;18.244;2023-01-28T15:52:39;57.50;;;28.00;;
57327;SDS011;43162;51.040;18.244;2023-01-28T15:55:06;53.20;;;29.50;;
57327;SDS011;43162;51.040;18.244;2023-01-28T15:57:33;61.90;;;30.10;;
57327;SDS011;43162;51.040;18.244;2023-01-28T16:02:30;42.60;;;23.70;;
57327;SDS011;43162;51.040;18.244;2023-01-28T16:05:03;49.60;;;25.70;;
57327;SDS011;43162;51.040;18.244;2023-01-28T16:07:32;74.90;;;35.70;;
57327;SDS011;43162;51.040;18.244;2023-01-28T16:10:15;50.00;;;23.10;;
57327;SDS011;43162;51.040;18.244;2023-01-28T16:12:47;92.40;;;45.90;;
57327;SDS011;43162;51.040;18.244;2023-01-28T16:15:16;41.40;;;21.80;;
57327;SDS011;43162;51.040;18.244;2023-01-28T16:17:45;64.30;;;30.50;;
57327;SDS011;43162;51.040;18.244;2023-01-28T16:20:25;69.50;;;38.00;;
57327;SDS011;43162;51.040;18.244;2023-01-28T16:22:52;63.60;;;27.70;;
57327;SDS011;43162;51.040;18.244;2023-01-28T16:25:27;59.60;;;32.30;;
57327;SDS011;43162;51.040;18.244;2023-01-28T16:27:52;81.30;;;42.50;;
57327;SDS011;43162;51.040;18.244;2023-01-28T16:30:18;64.50;;;36.00;;
57327;SDS011;43162;51.040;18.244;2023-01-28T16:32:44;46.40;;;23.70;;
57327;SDS011;43162;51.040;18.244;2023-01-28T16:35:14;81.70;;;41.10;;
57327;SDS011;43162;51.040;18.244;2023-01-28T16:37:42;65.10;;;35.40;;
57327;SDS011;43162;51.040;18.244;2023-01-28T16:40:08;62.30;;;30.40;;